Time;durP1;ratioP1;P1;durP2;ratioP2;P2;SDS_P1;SDS_P2;PMS_P1;PMS_P2;Temp;Humidity;BMP_temperature;BMP_pressure;BME280_temperature;BME280_humidity;BME280_pressure;Samples;Min_cycle;Max_cycle;Signal;HPM_P1;HPM_P2
2022/08/05 00:00:14;;;;;;;5.90;2.17;;;;;;;;;;5024983;28;20053;-65
2022/08/05 00:02:41;;;;;;;8.07;2.10;;;;;;;;;;5023005;28;20057;-65
2022/08/05 00:05:09;;;;;;;5.28;1.95;;;;;;;;;;5027348;28;20473;-65
2022/08/05 00:07:37;;;;;;;5.93;1.75;;;;;;;;;;5024703;28;20049;-65
2022/08/05 00:10:05;;;;;;;5.93;1.50;;;;;;;;;;5024803;28;20547;-64
2022/08/05 00:12:33;;;;;;;6.93;1.92;;;;;;;;;;5021577;28;20053;-65
2022/08/05 00:15:00;;;;;;;5.22;1.90;;;;;;;;;;5007330;28;20075;-65
2022/08/05 00:17:27;;;;;;;6.38;1.95;;;;;;;;;;5025084;28;20049;-65
2022/08/05 00:19:54;;;;;;;4.28;1.73;;;;;;;;;;5027750;28;20061;-66
2022/08/05 00:22:21;;;;;;;6.47;1.80;;;;;;;;;;5026554;28;20644;-65
2022/08/05 00:24:50;;;;;;;3.63;1.65;;;;;;;;;;5027012;28;20041;-65
2022/08/05 00:27:17;;;;;;;3.63;1.45;;;;;;;;;;5024550;28;20053;-65
2022/08/05 00:29:44;;;;;;;3.30;1.58;;;;;;;;;;5022059;28;20048;-66
2022/08/05 00:32:12;;;;;;;4.57;1.85;;;;;;;;;;5025188;28;20076;-65
2022/08/05 00:34:39;;;;;;;5.60;1.98;;;;;;;;;;5022882;28;20143;-65
2022/08/05 00:37:07;;;;;;;8.80;2.25;;;;;;;;;;5019543;28;20057;-65
2022/08/05 00:39:34;;;;;;;6.07;1.75;;;;;;;;;;5021997;28;20045;-65
2022/08/05 00:42:02;;;;;;;7.38;2.00;;;;;;;;;;5022592;28;20045;-65
2022/08/05 00:44:30;;;;;;;6.10;1.70;;;;;;;;;;5026540;28;20068;-65
2022/08/05 00:46:57;;;;;;;9.82;1.77;;;;;;;;;;5021556;28;20054;-65
2022/08/05 00:49:24;;;;;;;8.25;1.67;;;;;;;;;;5000693;28;20072;-65
2022/08/05 00:51:51;;;;;;;4.53;1.65;;;;;;;;;;5017943;28;20053;-65
2022/08/05 00:54:19;;;;;;;6.20;1.40;;;;;;;;;;5015930;28;20052;-65
2022/08/05 00:56:46;;;;;;;4.32;1.70;;;;;;;;;;5024076;28;20148;-65
2022/08/05 00:59:14;;;;;;;3.65;1.95;;;;;;;;;;5025930;28;20050;-66
2022/08/05 01:01:42;;;;;;;4.90;1.67;;;;;;;;;;5024513;28;20061;-65
2022/08/05 01:04:09;;;;;;;11.95;1.90;;;;;;;;;;5026746;28;20067;-65
2022/08/05 01:06:36;;;;;;;4.90;1.70;;;;;;;;;;5024475;28;20144;-66
2022/08/05 01:09:04;;;;;;;3.78;1.60;;;;;;;;;;5017680;28;20078;-65
2022/08/05 01:11:34;;;;;;;4.07;1.48;;;;;;;;;;5001823;28;20060;-65
2022/08/05 01:14:04;;;;;;;6.53;1.80;;;;;;;;;;5026054;28;20106;-65
2022/08/05 01:16:34;;;;;;;4.55;1.80;;;;;;;;;;5020000;28;20045;-65
2022/08/05 01:19:06;;;;;;;5.88;1.50;;;;;;;;;;5020878;28;20049;-65
2022/08/05 01:21:51;;;;;;;4.20;1.40;;;;;;;;;;5000277;28;20061;-64
2022/08/05 01:24:27;;;;;;;8.57;1.40;;;;;;;;;;5020483;28;20377;-65
2022/08/05 01:27:00;;;;;;;4.25;1.23;;;;;;;;;;5017764;28;20057;-65
2022/08/05 01:29:27;;;;;;;;;;;;;;;;;;5018844;28;20100;-65
2022/08/05 01:31:59;;;;;;;4.53;1.23;;;;;;;;;;5024446;28;19929;-65
2022/08/05 01:34:28;;;;;;;5.27;1.50;;;;;;;;;;5018480;28;20053;-64
2022/08/05 01:36:59;;;;;;;5.35;1.40;;;;;;;;;;5004594;28;20061;-64
2022/08/05 01:39:28;;;;;;;3.95;1.38;;;;;;;;;;5020858;28;20060;-65
2022/08/05 01:41:56;;;;;;;8.65;1.60;;;;;;;;;;5020152;28;20058;-66
2022/08/05 01:44:24;;;;;;;10.40;1.75;;;;;;;;;;5024240;28;20141;-64
2022/08/05 01:46:51;;;;;;;4.57;1.70;;;;;;;;;;5025190;28;20694;-64
2022/08/05 01:49:21;;;;;;;7.32;1.60;;;;;;;;;;5019314;28;20054;-66
2022/08/05 01:51:49;;;;;;;5.07;1.50;;;;;;;;;;5015027;28;20112;-66
2022/08/05 01:54:17;;;;;;;7.15;1.60;;;;;;;;;;5024783;28;20092;-65
2022/08/05 01:56:46;;;;;;;7.38;1.77;;;;;;;;;;5015278;28;20054;-65
2022/08/05 01:59:15;;;;;;;5.10;1.60;;;;;;;;;;5025043;28;20050;-65
2022/08/05 02:01:43;;;;;;;5.13;1.77;;;;;;;;;;5014890;28;20054;-65
2022/08/05 02:04:11;;;;;;;4.60;1.38;;;;;;;;;;5017378;28;20557;-65
2022/08/05 02:06:40;;;;;;;6.95;1.90;;;;;;;;;;5014549;28;20560;-66
2022/08/05 02:09:07;;;;;;;9.30;1.80;;;;;;;;;;5023605;28;20108;-65
2022/08/05 02:11:41;;;;;;;4.82;1.70;;;;;;;;;;5007101;28;20099;-65
2022/08/05 02:14:11;;;;;;;6.68;2.00;;;;;;;;;;5013229;28;20077;-65
2022/08/05 02:16:42;;;;;;;7.43;2.00;;;;;;;;;;5018410;28;20668;-65
2022/08/05 02:19:12;;;;;;;7.60;1.80;;;;;;;;;;5014322;28;20053;-65
2022/08/05 02:21:53;;;;;;;5.75;1.63;;;;;;;;;;5020638;28;20042;-65
2022/08/05 02:24:22;;;;;;;5.72;1.75;;;;;;;;;;5018232;28;20417;-65
2022/08/05 02:26:51;;;;;;;7.10;1.60;;;;;;;;;;5013225;28;20413;-65
2022/08/05 02:29:20;;;;;;;6.22;2.03;;;;;;;;;;5024183;28;20111;-64
2022/08/05 02:31:49;;;;;;;8.50;2.15;;;;;;;;;;5004050;28;20681;-66
2022/08/05 02:34:17;;;;;;;7.10;1.98;;;;;;;;;;5020350;28;20060;-65
2022/08/05 02:36:48;;;;;;;3.88;2.13;;;;;;;;;;5024718;28;20042;-65
2022/08/05 02:39:17;;;;;;;4.32;1.70;;;;;;;;;;5021439;28;20053;-65
2022/08/05 02:41:44;;;;;;;5.78;1.80;;;;;;;;;;5021778;28;20240;-65
2022/08/05 02:44:12;;;;;;;4.68;1.75;;;;;;;;;;5017653;28;20836;-66
2022/08/05 02:46:40;;;;;;;7.50;1.63;;;;;;;;;;5019533;28;20053;-65
2022/08/05 02:49:07;;;;;;;4.18;1.55;;;;;;;;;;5021527;28;20060;-64
2022/08/05 02:51:35;;;;;;;5.05;2.05;;;;;;;;;;5024241;28;20049;-65
2022/08/05 02:54:05;;;;;;;11.55;2.10;;;;;;;;;;5021861;28;20049;-66
2022/08/05 02:56:32;;;;;;;7.57;1.90;;;;;;;;;;5023024;28;20053;-64
2022/08/05 02:59:00;;;;;;;3.95;2.00;;;;;;;;;;5018973;28;20049;-65
2022/08/05 03:01:29;;;;;;;5.32;2.25;;;;;;;;;;5024557;28;20811;-64
2022/08/05 03:03:58;;;;;;;5.13;2.08;;;;;;;;;;5017794;28;20061;-65
2022/08/05 03:06:27;;;;;;;7.30;2.10;;;;;;;;;;5023184;28;20115;-65
2022/08/05 03:08:54;;;;;;;8.75;2.35;;;;;;;;;;5003568;28;20504;-65
2022/08/05 03:11:23;;;;;;;6.00;2.00;;;;;;;;;;5007431;28;20452;-65
2022/08/05 03:13:51;;;;;;;5.72;2.20;;;;;;;;;;5027127;28;20060;-66
2022/08/05 03:16:18;;;;;;;5.20;2.22;;;;;;;;;;5021850;28;20057;-65
2022/08/05 03:18:46;;;;;;;5.35;2.10;;;;;;;;;;5024454;28;20091;-64
2022/08/05 03:21:13;;;;;;;6.50;2.00;;;;;;;;;;5003021;28;20120;-66
2022/08/05 03:23:41;;;;;;;3.63;2.10;;;;;;;;;;5019305;28;20057;-64
2022/08/05 03:26:08;;;;;;;6.38;2.53;;;;;;;;;;5007173;28;20057;-66
2022/08/05 03:28:37;;;;;;;6.43;2.38;;;;;;;;;;5019922;28;20049;-64
2022/08/05 03:31:05;;;;;;;6.80;2.70;;;;;;;;;;5025397;28;20116;-65
2022/08/05 03:33:32;;;;;;;8.85;2.63;;;;;;;;;;5017530;28;20519;-65
2022/08/05 03:36:00;;;;;;;5.40;2.50;;;;;;;;;;5021620;28;20041;-65
2022/08/05 03:38:28;;;;;;;10.13;2.80;;;;;;;;;;5024030;28;20076;-65
2022/08/05 03:40:55;;;;;;;5.65;2.35;;;;;;;;;;5026275;28;20099;-65
2022/08/05 03:43:24;;;;;;;7.65;2.53;;;;;;;;;;5017037;28;20057;-66
2022/08/05 03:45:53;;;;;;;5.80;2.53;;;;;;;;;;5007519;28;20132;-65
2022/08/05 03:48:21;;;;;;;4.38;2.30;;;;;;;;;;5001905;28;20060;-66
2022/08/05 03:50:51;;;;;;;11.82;2.75;;;;;;;;;;5022893;28;20769;-65
2022/08/05 03:53:21;;;;;;;7.68;2.60;;;;;;;;;;5025749;28;20137;-65
2022/08/05 03:55:52;;;;;;;7.45;2.58;;;;;;;;;;5024973;28;20108;-65
2022/08/05 03:58:23;;;;;;;7.45;2.60;;;;;;;;;;5026731;28;20053;-66
2022/08/05 04:00:52;;;;;;;7.28;2.55;;;;;;;;;;5022483;28;20050;-65
2022/08/05 04:03:22;;;;;;;3.63;2.13;;;;;;;;;;5021516;28;20480;-65
2022/08/05 04:05:50;;;;;;;5.15;2.70;;;;;;;;;;5005117;28;20125;-65
2022/08/05 04:08:17;;;;;;;6.20;2.85;;;;;;;;;;5009223;28;20057;-66
2022/08/05 04:10:45;;;;;;;6.32;2.70;;;;;;;;;;5023656;28;20404;-65
2022/08/05 04:13:12;;;;;;;6.40;2.30;;;;;;;;;;5021026;28;20127;-66
2022/08/05 04:15:40;;;;;;;10.30;2.55;;;;;;;;;;5020207;28;20079;-64
2022/08/05 04:18:07;;;;;;;7.07;2.50;;;;;;;;;;5016403;28;20054;-65
2022/08/05 04:20:36;;;;;;;6.35;2.72;;;;;;;;;;5008002;28;20080;-65
2022/08/05 04:23:03;;;;;;;4.32;2.30;;;;;;;;;;5021728;28;20053;-66
2022/08/05 04:25:30;;;;;;;7.15;2.63;;;;;;;;;;5019632;28;20063;-65
2022/08/05 04:27:57;;;;;;;5.10;2.70;;;;;;;;;;5023196;28;20068;-65
2022/08/05 04:30:25;;;;;;;5.75;2.63;;;;;;;;;;5009503;28;20466;-65
2022/08/05 04:32:52;;;;;;;5.90;2.60;;;;;;;;;;5027238;28;20103;-65
2022/08/05 04:35:19;;;;;;;6.72;2.35;;;;;;;;;;5006780;28;20108;-65
2022/08/05 04:37:48;;;;;;;6.55;2.70;;;;;;;;;;5021530;28;20065;-65
2022/08/05 04:40:15;;;;;;;6.63;2.47;;;;;;;;;;5025860;28;20053;-65
2022/08/05 04:42:42;;;;;;;5.45;2.65;;;;;;;;;;5025052;28;20729;-65
2022/08/05 04:45:10;;;;;;;5.13;2.85;;;;;;;;;;5026268;28;20254;-64
2022/08/05 04:47:37;;;;;;;7.13;2.13;;;;;;;;;;5023363;28;20045;-65
2022/08/05 04:50:05;;;;;;;5.65;3.00;;;;;;;;;;5026549;28;20049;-65
2022/08/05 04:52:32;;;;;;;6.00;2.72;;;;;;;;;;5020695;28;20057;-64
2022/08/05 04:55:00;;;;;;;9.75;3.05;;;;;;;;;;5019592;28;20107;-65
2022/08/05 04:57:28;;;;;;;6.90;2.67;;;;;;;;;;4990042;28;20049;-65
2022/08/05 04:59:55;;;;;;;5.18;2.28;;;;;;;;;;5002544;28;20042;-64
2022/08/05 05:02:22;;;;;;;7.10;2.92;;;;;;;;;;4984599;28;20062;-66
2022/08/05 05:04:49;;;;;;;4.43;2.53;;;;;;;;;;4983409;28;20060;-64
2022/08/05 05:07:17;;;;;;;7.15;3.00;;;;;;;;;;4987723;28;20096;-65
2022/08/05 05:09:44;;;;;;;6.88;2.70;;;;;;;;;;4984300;28;20149;-65
2022/08/05 05:12:12;;;;;;;9.10;2.70;;;;;;;;;;5006707;28;20412;-65
2022/08/05 05:14:39;;;;;;;8.40;2.80;;;;;;;;;;4997145;28;20053;-65
2022/08/05 05:17:07;;;;;;;11.57;3.00;;;;;;;;;;5005711;28;20050;-65
2022/08/05 05:19:34;;;;;;;7.60;2.90;;;;;;;;;;4983944;28;20053;-65
2022/08/05 05:22:01;;;;;;;11.52;2.95;;;;;;;;;;5003208;28;20065;-65
2022/08/05 05:24:28;;;;;;;5.15;2.60;;;;;;;;;;5000364;28;20055;-65
2022/08/05 05:26:55;;;;;;;7.05;2.70;;;;;;;;;;5005493;28;20046;-65
2022/08/05 05:29:24;;;;;;;7.93;2.85;;;;;;;;;;5003960;28;20050;-65
2022/08/05 05:31:52;;;;;;;7.88;2.50;;;;;;;;;;5003635;28;20053;-65
2022/08/05 05:34:19;;;;;;;7.70;2.63;;;;;;;;;;5004010;28;20755;-65
2022/08/05 05:36:47;;;;;;;7.25;2.72;;;;;;;;;;5004988;28;20644;-64
2022/08/05 05:39:14;;;;;;;6.80;3.10;;;;;;;;;;5004532;28;20481;-65
2022/08/05 05:41:41;;;;;;;5.80;2.90;;;;;;;;;;5006061;28;20053;-64
2022/08/05 05:44:08;;;;;;;5.68;2.15;;;;;;;;;;5005536;28;20053;-65
2022/08/05 05:46:37;;;;;;;8.05;2.08;;;;;;;;;;5005297;28;20054;-64
2022/08/05 05:49:04;;;;;;;3.70;1.83;;;;;;;;;;5003981;28;20050;-65
2022/08/05 05:51:31;;;;;;;4.25;1.77;;;;;;;;;;5011706;28;20049;-65
2022/08/05 05:53:59;;;;;;;3.75;1.60;;;;;;;;;;4996739;28;20065;-65
2022/08/05 05:56:26;;;;;;;5.55;1.98;;;;;;;;;;5012655;28;20507;-65
2022/08/05 05:58:53;;;;;;;5.07;1.52;;;;;;;;;;5021679;28;20068;-65
2022/08/05 06:01:20;;;;;;;4.57;1.50;;;;;;;;;;5016608;28;20394;-64
2022/08/05 06:03:49;;;;;;;3.67;1.42;;;;;;;;;;5016197;28;20726;-65
2022/08/05 06:06:16;;;;;;;6.05;1.35;;;;;;;;;;5024408;28;20045;-64
2022/08/05 06:08:44;;;;;;;5.25;1.60;;;;;;;;;;5014826;28;20057;-65
2022/08/05 06:11:11;;;;;;;3.60;1.30;;;;;;;;;;5025101;28;20053;-65
2022/08/05 06:13:38;;;;;;;3.05;1.10;;;;;;;;;;5018448;28;20060;-64
2022/08/05 06:16:05;;;;;;;6.85;1.20;;;;;;;;;;5021031;28;20053;-65
2022/08/05 06:18:32;;;;;;;4.18;1.00;;;;;;;;;;5004404;28;20097;-65
2022/08/05 06:21:01;;;;;;;5.57;0.90;;;;;;;;;;5020955;28;20103;-65
2022/08/05 06:23:28;;;;;;;5.53;1.10;;;;;;;;;;5022567;28;20060;-66
2022/08/05 06:25:55;;;;;;;7.15;1.08;;;;;;;;;;5019465;28;20132;-64
2022/08/05 06:28:23;;;;;;;7.63;1.23;;;;;;;;;;5023715;28;21700;-66
2022/08/05 06:30:50;;;;;;;6.05;1.02;;;;;;;;;;5005636;28;20057;-65
2022/08/05 06:33:17;;;;;;;4.32;1.02;;;;;;;;;;5019400;28;20456;-66
2022/08/05 06:35:44;;;;;;;5.07;0.88;;;;;;;;;;5002378;28;20053;-65
2022/08/05 06:38:13;;;;;;;5.75;1.08;;;;;;;;;;5020138;28;20080;-66
2022/08/05 06:40:40;;;;;;;5.68;0.82;;;;;;;;;;5026938;28;20042;-64
2022/08/05 06:43:07;;;;;;;5.70;0.98;;;;;;;;;;5028828;28;20107;-65
2022/08/05 06:45:35;;;;;;;4.07;1.02;;;;;;;;;;5023703;28;20064;-65
2022/08/05 06:48:02;;;;;;;3.83;0.88;;;;;;;;;;5021583;28;20514;-65
2022/08/05 06:50:29;;;;;;;4.00;0.77;;;;;;;;;;5028067;28;20046;-65
2022/08/05 06:52:56;;;;;;;3.35;0.80;;;;;;;;;;5029280;28;20496;-65
2022/08/05 06:55:25;;;;;;;5.03;0.80;;;;;;;;;;5006296;28;20116;-66
2022/08/05 06:57:52;;;;;;;3.70;0.85;;;;;;;;;;5028639;28;20045;-65
2022/08/05 07:00:19;;;;;;;5.15;1.27;;;;;;;;;;5027171;28;20054;-65
2022/08/05 07:02:47;;;;;;;4.78;1.10;;;;;;;;;;5022915;28;20412;-65
2022/08/05 07:05:15;;;;;;;1.48;0.70;;;;;;;;;;5027170;28;20558;-66
2022/08/05 07:07:43;;;;;;;2.63;0.73;;;;;;;;;;5026267;28;20076;-64
2022/08/05 07:10:11;;;;;;;3.40;0.80;;;;;;;;;;5027599;28;20137;-65
2022/08/05 07:18:09;;;;;;;3.95;1.52;;;;;;;;;;5022219;28;20184;-65
2022/08/05 07:20:37;;;;;;;2.90;0.70;;;;;;;;;;5004935;28;20065;-65
2022/08/05 07:23:04;;;;;;;8.27;0.90;;;;;;;;;;5021184;28;20054;-65
2022/08/05 07:25:31;;;;;;;4.75;0.80;;;;;;;;;;5022849;28;20679;-64
2022/08/05 07:28:00;;;;;;;5.07;0.88;;;;;;;;;;5017556;28;20076;-65
2022/08/05 07:30:27;;;;;;;5.18;0.90;;;;;;;;;;5022590;28;20519;-65
2022/08/05 07:32:54;;;;;;;5.47;0.80;;;;;;;;;;5023189;28;20045;-65
2022/08/05 07:35:21;;;;;;;15.32;1.25;;;;;;;;;;5009059;28;20056;-65
2022/08/05 07:37:49;;;;;;;6.03;0.80;;;;;;;;;;5025564;28;20693;-65
2022/08/05 07:40:16;;;;;;;7.07;0.95;;;;;;;;;;5016821;28;20049;-65
2022/08/05 07:42:43;;;;;;;5.00;0.70;;;;;;;;;;5024192;28;20081;-64
2022/08/05 07:45:12;;;;;;;3.30;0.80;;;;;;;;;;5004565;28;20058;-65
2022/08/05 07:47:39;;;;;;;5.50;0.90;;;;;;;;;;5012408;28;20072;-65
2022/08/05 07:50:07;;;;;;;7.22;1.20;;;;;;;;;;5024906;28;20610;-66
2022/08/05 07:52:38;;;;;;;4.53;0.88;;;;;;;;;;5018773;28;20061;-66
2022/08/05 07:55:06;;;;;;;2.75;0.82;;;;;;;;;;5019546;28;20111;-65
2022/08/05 07:57:33;;;;;;;4.88;0.52;;;;;;;;;;5025019;28;20143;-64
2022/08/05 08:00:00;;;;;;;3.42;0.95;;;;;;;;;;5026951;28;20049;-65
2022/08/05 08:02:29;;;;;;;3.65;0.82;;;;;;;;;;5021367;28;20283;-65
2022/08/05 08:04:57;;;;;;;1.58;0.50;;;;;;;;;;5025817;28;20136;-65
2022/08/05 08:07:24;;;;;;;3.92;1.00;;;;;;;;;;4993501;28;20054;-65
2022/08/05 08:09:52;;;;;;;5.25;1.00;;;;;;;;;;5014128;28;20063;-65
2022/08/05 08:12:19;;;;;;;3.50;0.70;;;;;;;;;;5014240;28;20061;-64
2022/08/05 08:14:46;;;;;;;1.85;0.60;;;;;;;;;;5016900;28;20521;-65
2022/08/05 08:17:13;;;;;;;5.28;0.90;;;;;;;;;;5002558;28;20054;-65
2022/08/05 08:19:42;;;;;;;5.53;1.02;;;;;;;;;;5017393;28;20050;-65
2022/08/05 08:22:10;;;;;;;2.47;0.70;;;;;;;;;;5004992;28;20076;-65
2022/08/05 08:24:37;;;;;;;4.43;0.80;;;;;;;;;;5022276;28;20412;-64
2022/08/05 08:27:05;;;;;;;5.13;0.70;;;;;;;;;;5022659;28;20054;-65
2022/08/05 08:29:32;;;;;;;3.15;0.52;;;;;;;;;;5018123;28;20509;-65
2022/08/05 08:31:59;;;;;;;5.32;0.82;;;;;;;;;;5021095;28;20497;-64
2022/08/05 08:34:27;;;;;;;6.22;0.70;;;;;;;;;;5023333;28;20061;-64
2022/08/05 08:36:56;;;;;;;1.70;0.52;;;;;;;;;;5023735;28;20049;-65
2022/08/05 08:39:23;;;;;;;2.25;0.55;;;;;;;;;;5018912;28;20574;-64
2022/08/05 08:41:55;;;;;;;2.95;0.60;;;;;;;;;;5025176;28;20050;-65
2022/08/05 08:44:24;;;;;;;1.45;0.40;;;;;;;;;;5019976;28;20848;-65
2022/08/05 08:46:51;;;;;;;3.85;0.70;;;;;;;;;;5018578;28;20133;-65
2022/08/05 08:49:20;;;;;;;1.77;0.47;;;;;;;;;;5019553;28;20100;-65
2022/08/05 08:51:48;;;;;;;1.30;0.50;;;;;;;;;;5006500;28;20049;-65
2022/08/05 08:54:17;;;;;;;3.42;0.50;;;;;;;;;;5019868;28;20133;-65
2022/08/05 08:56:44;;;;;;;3.17;0.70;;;;;;;;;;5020282;28;20453;-66
2022/08/05 08:59:12;;;;;;;1.30;0.50;;;;;;;;;;5022238;28;20057;-65
2022/08/05 09:01:41;;;;;;;0.75;0.38;;;;;;;;;;5024998;28;20408;-65
2022/08/05 09:04:09;;;;;;;0.90;0.30;;;;;;;;;;5025497;28;20132;-65
2022/08/05 09:06:36;;;;;;;1.60;0.57;;;;;;;;;;5016170;28;20049;-65
2022/08/05 09:09:03;;;;;;;2.53;0.52;;;;;;;;;;5018237;28;20057;-65
2022/08/05 09:11:33;;;;;;;2.40;0.50;;;;;;;;;;5022920;28;20107;-65
2022/08/05 09:14:00;;;;;;;2.22;0.40;;;;;;;;;;5016423;28;20054;-66
2022/08/05 09:16:28;;;;;;;3.55;0.50;;;;;;;;;;5015997;28;20123;-65
2022/08/05 09:18:55;;;;;;;1.63;0.50;;;;;;;;;;5018757;28;20081;-66
2022/08/05 09:21:22;;;;;;;1.80;0.47;;;;;;;;;;5023002;28;20068;-66
2022/08/05 09:24:03;;;;;;;2.92;0.40;;;;;;;;;;5017675;28;20056;-65
2022/08/05 09:26:31;;;;;;;1.65;0.60;;;;;;;;;;5019378;28;20507;-66
2022/08/05 09:29:03;;;;;;;1.73;0.40;;;;;;;;;;5021780;28;20067;-65
2022/08/05 09:31:31;;;;;;;2.58;0.52;;;;;;;;;;5004231;28;20104;-66
2022/08/05 09:33:59;;;;;;;1.25;0.40;;;;;;;;;;5020623;28;20041;-66
2022/08/05 09:36:38;;;;;;;4.43;0.73;;;;;;;;;;5015501;28;20569;-66
2022/08/05 09:39:07;;;;;;;1.77;0.47;;;;;;;;;;5001234;28;20064;-65
2022/08/05 09:41:35;;;;;;;1.85;0.43;;;;;;;;;;5015373;28;20057;-65
2022/08/05 09:44:03;;;;;;;3.70;0.60;;;;;;;;;;5016612;28;21438;-66
2022/08/05 09:46:31;;;;;;;1.88;0.52;;;;;;;;;;5022699;28;20057;-65
2022/08/05 09:48:59;;;;;;;4.32;0.60;;;;;;;;;;5020075;28;20708;-65
2022/08/05 09:51:33;;;;;;;2.40;0.40;;;;;;;;;;5002207;28;21166;-66
2022/08/05 09:54:03;;;;;;;3.47;0.45;;;;;;;;;;5023935;28;20049;-65
2022/08/05 09:56:33;;;;;;;2.42;0.70;;;;;;;;;;5020942;28;20685;-66
2022/08/05 09:59:03;;;;;;;1.50;0.50;;;;;;;;;;5019262;28;20049;-66
2022/08/05 10:01:32;;;;;;;2.58;0.40;;;;;;;;;;5021567;28;20420;-66
2022/08/05 10:04:02;;;;;;;1.58;0.43;;;;;;;;;;5019544;28;20084;-66
2022/08/05 10:06:29;;;;;;;5.95;0.40;;;;;;;;;;5023163;28;20069;-66
2022/08/05 10:08:56;;;;;;;5.13;0.68;;;;;;;;;;5025083;28;20460;-66
2022/08/05 10:11:23;;;;;;;1.33;0.70;;;;;;;;;;5020435;28;20060;-66
2022/08/05 10:13:51;;;;;;;2.67;0.50;;;;;;;;;;5019456;28;20052;-65
2022/08/05 10:16:31;;;;;;;3.45;0.85;;;;;;;;;;5003524;28;20142;-65
2022/08/05 10:18:58;;;;;;;3.17;0.50;;;;;;;;;;4995934;28;20049;-66
2022/08/05 10:21:26;;;;;;;3.28;0.50;;;;;;;;;;5021989;28;20103;-65
2022/08/05 10:23:53;;;;;;;1.25;0.40;;;;;;;;;;5022225;28;20605;-66
2022/08/05 10:26:20;;;;;;;4.15;0.60;;;;;;;;;;5012815;28;20048;-65
2022/08/05 10:28:48;;;;;;;2.30;0.50;;;;;;;;;;5006809;28;20057;-65
2022/08/05 10:31:16;;;;;;;3.20;0.68;;;;;;;;;;5023241;28;20046;-66
2022/08/05 10:33:45;;;;;;;3.17;0.60;;;;;;;;;;5023268;28;20119;-65
2022/08/05 10:36:12;;;;;;;2.25;0.57;;;;;;;;;;5020713;28;20433;-65
2022/08/05 10:38:42;;;;;;;2.97;0.70;;;;;;;;;;5020058;28;20047;-65
2022/08/05 10:41:12;;;;;;;2.47;0.63;;;;;;;;;;5003873;28;20049;-65
2022/08/05 10:43:44;;;;;;;1.88;0.50;;;;;;;;;;5003277;28;20085;-66
2022/08/05 10:46:12;;;;;;;3.63;0.70;;;;;;;;;;5014068;28;20053;-65
2022/08/05 10:48:40;;;;;;;3.58;0.43;;;;;;;;;;5014984;28;20073;-66
2022/08/05 10:51:10;;;;;;;3.85;0.80;;;;;;;;;;5021643;28;20401;-65
2022/08/05 10:53:42;;;;;;;2.75;0.70;;;;;;;;;;5023165;28;20045;-66
2022/08/05 10:56:12;;;;;;;1.67;0.50;;;;;;;;;;5021832;28;20061;-65
2022/08/05 10:58:48;;;;;;;1.83;0.50;;;;;;;;;;5022317;28;20872;-65
2022/08/05 11:01:15;;;;;;;0.63;0.30;;;;;;;;;;5021055;28;20076;-66
2022/08/05 11:04:02;;;;;;;3.60;0.60;;;;;;;;;;5018176;28;20116;-66
2022/08/05 11:06:30;;;;;;;1.73;0.40;;;;;;;;;;5019957;28;20065;-66
2022/08/05 11:09:14;;;;;;;2.42;0.50;;;;;;;;;;5015806;28;20050;-66
2022/08/05 11:11:43;;;;;;;1.48;0.50;;;;;;;;;;5019279;28;20049;-65
2022/08/05 11:14:12;;;;;;;3.03;0.50;;;;;;;;;;5017671;28;20136;-66
2022/08/05 11:16:39;;;;;;;3.25;0.60;;;;;;;;;;5019180;28;20053;-66
2022/08/05 11:19:25;;;;;;;2.40;0.65;;;;;;;;;;5021778;28;20042;-66
2022/08/05 11:21:54;;;;;;;2.33;0.60;;;;;;;;;;5020131;28;20534;-66
2022/08/05 11:24:22;;;;;;;3.38;0.50;;;;;;;;;;5019401;28;20053;-65
2022/08/05 11:26:50;;;;;;;2.83;0.57;;;;;;;;;;5007888;28;20374;-66
2022/08/05 11:29:36;;;;;;;2.30;0.75;;;;;;;;;;5020682;28;20488;-66
2022/08/05 11:32:22;;;;;;;4.35;0.52;;;;;;;;;;5020403;28;20408;-66
2022/08/05 11:34:49;;;;;;;3.25;0.47;;;;;;;;;;5020837;28;20052;-65
2022/08/05 11:40:12;;;;;;;2.10;0.65;;;;;;;;;;5147409;27;19916;-65
2022/08/05 11:42:41;;;;;;;1.60;0.57;;;;;;;;;;5139655;27;20059;-64
2022/08/05 11:45:09;;;;;;;2.08;0.50;;;;;;;;;;5141805;27;20082;-64
2022/08/05 11:47:37;;;;;;;2.97;0.55;;;;;;;;;;5140535;27;20054;-65
2022/08/05 11:50:05;;;;;;;2.10;0.65;;;;;;;;;;5135601;27;20130;-64
2022/08/05 11:52:32;;;;;;;3.17;0.50;;;;;;;;;;5139376;27;20518;-65
2022/08/05 11:54:59;;;;;;;3.05;0.45;;;;;;;;;;5141455;27;20047;-65
2022/08/05 11:57:31;;;;;;;3.03;0.63;;;;;;;;;;5121659;27;20060;-65
2022/08/05 11:59:58;;;;;;;3.07;0.73;;;;;;;;;;5134611;27;20083;-65
2022/08/05 12:02:27;;;;;;;4.07;0.65;;;;;;;;;;5133611;27;20276;-64
2022/08/05 12:04:54;;;;;;;2.33;0.50;;;;;;;;;;5133333;27;20571;-64
2022/08/05 12:07:21;;;;;;;2.60;0.70;;;;;;;;;;5123521;27;20050;-64
2022/08/05 12:09:49;;;;;;;2.60;0.70;;;;;;;;;;5133468;27;20075;-64
2022/08/05 12:12:22;;;;;;;3.60;0.60;;;;;;;;;;5132972;27;20050;-65
2022/08/05 12:14:51;;;;;;;2.88;0.40;;;;;;;;;;5128740;27;20050;-64
2022/08/05 12:17:19;;;;;;;3.72;0.60;;;;;;;;;;5128723;27;20887;-64
2022/08/05 12:19:48;;;;;;;1.42;0.50;;;;;;;;;;5130207;27;20039;-65
2022/08/05 12:22:15;;;;;;;2.00;0.60;;;;;;;;;;5134918;27;20104;-64
2022/08/05 12:24:43;;;;;;;1.17;0.47;;;;;;;;;;5125184;27;20046;-64
2022/08/05 12:27:11;;;;;;;2.38;0.45;;;;;;;;;;5119514;28;20055;-64
2022/08/05 12:29:38;;;;;;;4.35;0.60;;;;;;;;;;5104664;28;20044;-64
2022/08/05 12:32:07;;;;;;;2.97;0.50;;;;;;;;;;5121944;28;20044;-64
2022/08/05 12:34:35;;;;;;;2.63;0.82;;;;;;;;;;5119418;28;20475;-64
2022/08/05 12:37:09;;;;;;;2.55;0.50;;;;;;;;;;5102613;28;20071;-64
2022/08/05 12:39:37;;;;;;;2.33;0.52;;;;;;;;;;5119948;28;20051;-66
2022/08/05 12:42:04;;;;;;;2.55;0.60;;;;;;;;;;5120701;28;20055;-65
2022/08/05 12:44:32;;;;;;;1.50;0.50;;;;;;;;;;5120548;28;20065;-65
2022/08/05 12:46:59;;;;;;;3.25;0.40;;;;;;;;;;5115752;28;20047;-64
2022/08/05 12:49:39;;;;;;;2.33;0.63;;;;;;;;;;5117350;28;20054;-65
2022/08/05 12:52:12;;;;;;;6.88;1.15;;;;;;;;;;5100219;28;20097;-64
2022/08/05 12:54:40;;;;;;;9.73;1.60;;;;;;;;;;5108592;28;20058;-63
2022/08/05 12:57:09;;;;;;;7.47;1.35;;;;;;;;;;5104934;28;20784;-64
2022/08/05 12:59:44;;;;;;;5.05;1.00;;;;;;;;;;5088081;28;20051;-64
2022/08/05 13:02:12;;;;;;;5.18;0.93;;;;;;;;;;5088716;28;20070;-65
2022/08/05 13:04:41;;;;;;;7.07;1.48;;;;;;;;;;5098629;28;20051;-64
2022/08/05 13:07:11;;;;;;;5.93;1.23;;;;;;;;;;5107376;28;20074;-64
2022/08/05 13:09:39;;;;;;;3.67;1.02;;;;;;;;;;5101305;27;20125;-64
2022/08/05 13:12:08;;;;;;;5.57;1.08;;;;;;;;;;5102125;28;20043;-64
2022/08/05 13:14:36;;;;;;;3.15;0.77;;;;;;;;;;5106660;28;20046;-65
2022/08/05 13:17:07;;;;;;;3.45;0.90;;;;;;;;;;5107630;28;20064;-64
2022/08/05 13:19:35;;;;;;;5.72;0.93;;;;;;;;;;5104232;28;20075;-65
2022/08/05 13:22:03;;;;;;;5.00;0.80;;;;;;;;;;5107607;28;20503;-64
2022/08/05 13:24:31;;;;;;;3.10;0.80;;;;;;;;;;5096912;28;20789;-64
2022/08/05 13:26:58;;;;;;;7.85;1.10;;;;;;;;;;5107071;28;20055;-64
2022/08/05 13:29:25;;;;;;;5.15;0.60;;;;;;;;;;5107730;28;20043;-65
2022/08/05 13:31:52;;;;;;;3.50;0.80;;;;;;;;;;5103941;28;20157;-64
2022/08/05 13:34:20;;;;;;;3.30;0.70;;;;;;;;;;5107037;28;20043;-64
2022/08/05 13:36:47;;;;;;;2.55;0.82;;;;;;;;;;5105479;28;20056;-65
2022/08/05 13:39:16;;;;;;;2.92;0.75;;;;;;;;;;5103818;28;20063;-65
2022/08/05 13:41:43;;;;;;;2.00;0.60;;;;;;;;;;5108041;28;20043;-65
2022/08/05 13:44:10;;;;;;;3.38;0.90;;;;;;;;;;5103325;28;20044;-64
2022/08/05 13:46:38;;;;;;;1.95;0.80;;;;;;;;;;5103952;28;20051;-65
2022/08/05 13:49:05;;;;;;;2.97;0.90;;;;;;;;;;5105263;28;20463;-65
2022/08/05 13:51:33;;;;;;;1.65;0.70;;;;;;;;;;5101087;28;20048;-65
2022/08/05 13:54:01;;;;;;;2.97;1.00;;;;;;;;;;5104165;28;20071;-65
2022/08/05 13:56:29;;;;;;;2.55;0.80;;;;;;;;;;5082343;28;20051;-66
2022/08/05 13:58:56;;;;;;;3.40;1.98;;;;;;;;;;5088199;28;20106;-65
2022/08/05 14:01:24;;;;;;;3.97;1.00;;;;;;;;;;5098919;28;20406;-65
2022/08/05 14:06:35;;;;;;;2.75;1.02;;;;;;;;;;5103635;28;20131;-65
2022/08/05 14:09:03;;;;;;;5.32;1.42;;;;;;;;;;5102639;28;20050;-65
2022/08/05 14:11:31;;;;;;;4.78;0.90;;;;;;;;;;5105067;28;20055;-65
2022/08/05 14:13:58;;;;;;;4.95;1.00;;;;;;;;;;5083361;28;20062;-66
2022/08/05 14:16:26;;;;;;;2.80;1.05;;;;;;;;;;5085635;28;20060;-65
2022/08/05 14:18:53;;;;;;;2.63;0.90;;;;;;;;;;5086870;28;21296;-66
2022/08/05 14:21:20;;;;;;;3.55;1.17;;;;;;;;;;5102630;28;20039;-65
2022/08/05 14:23:47;;;;;;;3.13;0.93;;;;;;;;;;5104559;28;20115;-65
2022/08/05 14:26:14;;;;;;;3.58;1.13;;;;;;;;;;5102259;28;20040;-65
2022/08/05 14:28:43;;;;;;;4.50;1.25;;;;;;;;;;5102783;28;20047;-66
2022/08/05 14:31:10;;;;;;;3.88;1.23;;;;;;;;;;5102877;28;20112;-65
2022/08/05 14:33:37;;;;;;;4.88;1.10;;;;;;;;;;5079942;28;20047;-65
2022/08/05 14:36:05;;;;;;;1.65;0.95;;;;;;;;;;5102670;28;20051;-65
2022/08/05 14:38:32;;;;;;;4.15;1.15;;;;;;;;;;5105610;28;20805;-65
2022/08/05 14:41:00;;;;;;;2.10;0.95;;;;;;;;;;5104205;28;20055;-65
2022/08/05 14:43:27;;;;;;;3.45;1.02;;;;;;;;;;5104810;28;20061;-65
2022/08/05 14:45:56;;;;;;;6.70;1.15;;;;;;;;;;5104489;28;20095;-65
2022/08/05 14:48:23;;;;;;;5.53;1.10;;;;;;;;;;5103734;28;20066;-66
2022/08/05 14:50:50;;;;;;;3.30;0.93;;;;;;;;;;5098722;28;20036;-65
2022/08/05 14:53:17;;;;;;;5.28;1.00;;;;;;;;;;5103248;28;20121;-65
2022/08/05 14:55:45;;;;;;;4.32;1.08;;;;;;;;;;5102321;28;20050;-65
2022/08/05 14:58:12;;;;;;;4.18;1.00;;;;;;;;;;5101082;28;20044;-65
2022/08/05 15:00:40;;;;;;;5.18;1.13;;;;;;;;;;5104184;28;20112;-65